createdAt,value
2022-12-17T00:00:15.571Z,98.47
2022-12-17T00:05:34.875Z,98.84
2022-12-17T00:10:54.351Z,98.16
2022-12-17T00:16:13.923Z,97.60
2022-12-17T00:21:33.125Z,97.39
2022-12-17T00:26:53.025Z,97.51
2022-12-17T00:32:13.345Z,96.38
2022-12-17T00:37:32.989Z,95.71
2022-12-17T00:42:52.562Z,97.35
2022-12-17T00:48:15.541Z,98.16
2022-12-17T00:53:35.922Z,97.18
2022-12-17T00:58:55.597Z,96.85
2022-12-17T01:04:16.028Z,96.91
2022-12-17T01:09:35.604Z,96.19
2022-12-17T01:14:55.159Z,96.43
2022-12-17T01:20:14.615Z,96.36
2022-12-17T01:25:34.197Z,96.29
2022-12-17T01:30:56.205Z,96.93
2022-12-17T01:36:17.025Z,97.48
2022-12-17T01:41:37.100Z,96.54
2022-12-17T01:47:02.542Z,96.17
2022-12-17T01:52:22.059Z,97.43
2022-12-17T01:57:43.403Z,98.06
2022-12-17T02:03:03.225Z,98.06
2022-12-17T02:08:43.179Z,97.58
2022-12-17T02:14:21.944Z,96.63
2022-12-17T02:20:38.497Z,95.27
2022-12-17T02:26:08.034Z,94.41
2022-12-17T02:31:31.418Z,93.76
2022-12-17T02:36:53.350Z,95.00
2022-12-17T02:42:15.900Z,95.26
2022-12-17T02:47:37.809Z,94.95
2022-12-17T02:53:00.857Z,94.07
2022-12-17T02:58:20.352Z,95.02
2022-12-17T03:03:40.756Z,92.51
2022-12-17T03:09:01.318Z,93.93
2022-12-17T03:14:21.148Z,94.25
2022-12-17T03:19:40.589Z,94.36
2022-12-17T03:25:00.092Z,94.71
2022-12-17T03:30:19.806Z,95.60
2022-12-17T03:35:39.827Z,95.35
2022-12-17T03:40:59.478Z,95.36
2022-12-17T03:46:19.001Z,94.74
2022-12-17T03:51:38.391Z,95.30
2022-12-17T03:56:57.786Z,95.41
2022-12-17T04:02:18.421Z,95.21
2022-12-17T04:07:37.660Z,95.12
2022-12-17T04:12:57.044Z,96.76
2022-12-17T04:18:16.481Z,97.20
2022-12-17T04:23:36.197Z,96.39
2022-12-17T04:28:55.857Z,96.58
2022-12-17T04:34:15.379Z,97.06
2022-12-17T04:39:35.401Z,95.70
2022-12-17T04:44:54.814Z,95.75
2022-12-17T04:50:14.525Z,96.01
2022-12-17T04:55:33.918Z,96.24
2022-12-17T05:00:53.322Z,95.96
2022-12-17T05:06:12.869Z,96.07
2022-12-17T05:11:32.237Z,96.06
2022-12-17T05:16:51.744Z,95.74
2022-12-17T05:22:11.134Z,95.62
2022-12-17T05:27:30.670Z,95.59
2022-12-17T05:32:50.121Z,95.96
2022-12-17T05:38:09.780Z,96.65
2022-12-17T05:43:31.411Z,96.75
2022-12-17T05:48:52.084Z,95.37
2022-12-17T05:54:12.360Z,96.28
2022-12-17T05:59:32.025Z,96.78
2022-12-17T06:04:51.475Z,95.05
2022-12-17T06:10:11.441Z,96.24
2022-12-17T06:15:30.869Z,97.15
2022-12-17T06:20:50.516Z,97.13
2022-12-17T06:26:10.922Z,97.30
2022-12-17T06:31:30.734Z,96.78
2022-12-17T06:36:50.211Z,96.98
2022-12-17T06:42:09.665Z,96.80
2022-12-17T06:47:29.512Z,96.99
2022-12-17T06:52:49.024Z,97.05
2022-12-17T06:58:14.875Z,97.36
2022-12-17T07:03:35.045Z,97.52
2022-12-17T07:08:55.045Z,97.95
2022-12-17T07:14:16.488Z,99.23
2022-12-17T07:19:35.893Z,99.79
2022-12-17T07:24:55.476Z,99.98
2022-12-17T07:30:14.942Z,99.34
2022-12-17T07:35:35.216Z,98.95
2022-12-17T07:40:54.682Z,99.66
2022-12-17T07:46:14.683Z,99.18
2022-12-17T07:51:34.167Z,97.42
2022-12-17T07:56:53.599Z,95.98
2022-12-17T08:02:15.003Z,98.12
2022-12-17T08:07:34.502Z,92.17
2022-12-17T08:12:53.960Z,87.86
2022-12-17T08:18:26.348Z,86.80
2022-12-17T08:23:46.396Z,86.54
2022-12-17T08:29:05.874Z,88.24
2022-12-17T08:34:25.890Z,86.65
2022-12-17T08:39:45.448Z,82.80
2022-12-17T08:45:05.260Z,84.67
2022-12-17T08:50:25.886Z,85.31
2022-12-17T08:55:45.594Z,82.93
2022-12-17T09:01:05.125Z,84.95
2022-12-17T09:06:25.018Z,86.31
2022-12-17T09:11:44.416Z,85.34
2022-12-17T09:17:03.876Z,84.85
2022-12-17T09:23:26.986Z,82.84
2022-12-17T09:28:46.721Z,81.92
2022-12-17T09:34:06.198Z,78.86
2022-12-17T09:39:25.700Z,77.29
2022-12-17T09:44:59.929Z,80.19
2022-12-17T09:50:22.649Z,81.78
2022-12-17T09:55:48.284Z,82.13
2022-12-17T10:01:10.300Z,78.60
2022-12-17T10:06:34.920Z,80.41
2022-12-17T10:11:54.454Z,80.64
2022-12-17T10:17:13.903Z,81.46
2022-12-17T10:22:39.175Z,79.91
2022-12-17T10:27:59.567Z,79.24
2022-12-17T10:33:23.984Z,75.66
2022-12-17T10:38:48.437Z,78.77
2022-12-17T10:44:08.085Z,77.18
2022-12-17T10:49:30.942Z,75.52
2022-12-17T10:54:52.161Z,76.22
2022-12-17T11:00:12.159Z,76.78
2022-12-17T11:05:59.459Z,73.68
2022-12-17T11:11:22.302Z,79.87
2022-12-17T11:16:52.829Z,78.19
2022-12-17T11:22:15.764Z,82.71
2022-12-17T11:27:42.302Z,82.92
2022-12-17T11:33:55.346Z,82.54
2022-12-17T11:39:27.953Z,80.03
2022-12-17T11:45:31.207Z,85.24
2022-12-17T11:52:26.870Z,82.28
2022-12-17T11:59:41.240Z,81.58
2022-12-17T12:05:22.125Z,82.08
2022-12-17T12:10:58.821Z,80.77
2022-12-17T12:20:09.644Z,82.50
2022-12-17T12:26:34.370Z,85.76
2022-12-17T12:32:16.348Z,81.98
2022-12-17T12:37:38.680Z,77.64
2022-12-17T12:43:08.836Z,82.36
2022-12-17T12:50:31.666Z,81.79
2022-12-17T12:55:56.828Z,78.53
2022-12-17T13:01:16.356Z,75.99
2022-12-17T13:06:55.482Z,78.38
2022-12-17T13:13:35.341Z,75.03
2022-12-17T13:18:41.305Z,71.67
2022-12-17T13:23:42.837Z,70.59
2022-12-17T13:29:47.981Z,71.56
2022-12-17T13:35:08.478Z,71.24
2022-12-17T13:41:33.945Z,71.45
2022-12-17T13:46:46.601Z,69.94
2022-12-17T13:51:59.136Z,65.82
2022-12-17T13:57:36.718Z,62.34
2022-12-17T14:02:38.348Z,61.59
2022-12-17T14:07:39.969Z,59.13
2022-12-17T14:12:41.150Z,65.46
2022-12-17T14:17:46.054Z,63.05
2022-12-17T14:23:33.457Z,63.60
2022-12-17T14:28:37.424Z,61.84
2022-12-17T14:33:38.659Z,61.92
2022-12-17T14:38:42.978Z,59.99
2022-12-17T14:43:55.350Z,60.10
2022-12-17T14:49:01.531Z,58.20
2022-12-17T14:54:29.192Z,59.24
2022-12-17T14:59:35.712Z,57.46
2022-12-17T15:04:38.592Z,55.23
2022-12-17T15:09:42.068Z,52.58
2022-12-17T15:14:42.858Z,51.55
2022-12-17T15:19:43.848Z,53.64
2022-12-17T15:24:45.063Z,57.26
2022-12-17T15:29:45.941Z,61.20
2022-12-17T15:34:47.181Z,67.91
2022-12-17T15:39:48.014Z,74.33
2022-12-17T15:44:48.745Z,77.25
2022-12-17T15:49:49.843Z,79.02
2022-12-17T15:54:50.575Z,82.50
2022-12-17T15:59:51.374Z,89.71
2022-12-17T16:04:52.256Z,85.54
2022-12-17T16:09:53.348Z,86.54
2022-12-17T16:14:54.187Z,87.80
2022-12-17T16:19:54.974Z,86.78
2022-12-17T16:24:55.737Z,87.32
2022-12-17T16:29:56.514Z,84.95
2022-12-17T16:34:57.351Z,84.64
2022-12-17T16:40:00.419Z,86.19
2022-12-17T16:45:01.623Z,87.91
2022-12-17T16:50:03.022Z,89.17
2022-12-17T16:55:04.776Z,88.52
2022-12-17T17:00:07.011Z,88.34
2022-12-17T17:05:08.073Z,85.93
2022-12-17T17:10:09.302Z,86.73
2022-12-17T17:15:10.448Z,85.64
2022-12-17T17:20:12.252Z,83.45
2022-12-17T17:25:13.019Z,82.80
2022-12-17T17:30:13.820Z,82.45
2022-12-17T17:35:15.659Z,82.77
2022-12-17T17:40:16.435Z,83.21
2022-12-17T17:45:17.175Z,81.58
2022-12-17T17:50:17.931Z,80.84
2022-12-17T17:55:18.714Z,82.10
2022-12-17T18:00:19.649Z,82.14
2022-12-17T18:05:20.466Z,83.14
2022-12-17T18:10:21.251Z,82.81
2022-12-17T18:15:22.316Z,83.01
2022-12-17T18:20:23.110Z,82.93
2022-12-17T18:25:23.908Z,82.73
2022-12-17T18:30:24.701Z,83.40
2022-12-17T18:35:26.686Z,84.08
2022-12-17T18:40:32.899Z,83.69
2022-12-17T18:45:37.619Z,83.46
2022-12-17T18:50:38.363Z,84.49
2022-12-17T18:55:40.283Z,84.87
2022-12-17T19:00:41.108Z,85.14
2022-12-17T19:05:46.557Z,85.59
2022-12-17T19:10:49.025Z,84.69
2022-12-17T19:15:50.153Z,84.95
2022-12-17T19:20:56.582Z,84.29
2022-12-17T19:26:08.019Z,86.34
2022-12-17T19:31:09.453Z,86.70
2022-12-17T19:36:17.097Z,87.09
2022-12-17T19:41:18.674Z,89.87
2022-12-17T19:46:19.894Z,88.71
2022-12-17T19:51:23.225Z,89.50
2022-12-17T19:56:27.272Z,89.63
2022-12-17T20:01:31.403Z,88.44
2022-12-17T20:06:34.418Z,89.13
2022-12-17T20:11:36.165Z,89.22
2022-12-17T20:16:40.526Z,90.16
2022-12-17T20:21:41.559Z,92.44
2022-12-17T20:26:44.107Z,92.75
2022-12-17T20:31:49.930Z,92.60
2022-12-17T20:36:52.203Z,92.74
2022-12-17T20:41:53.193Z,94.84
2022-12-17T20:46:54.787Z,96.98
2022-12-17T20:51:55.684Z,100.00
2022-12-17T20:56:56.647Z,100.00
2022-12-17T21:01:57.475Z,100.00
2022-12-17T21:06:58.425Z,100.00
2022-12-17T21:11:59.221Z,99.16
2022-12-17T21:17:00.469Z,98.98
2022-12-17T21:22:01.588Z,98.76
2022-12-17T21:27:02.597Z,98.99
2022-12-17T21:32:04.115Z,98.00
2022-12-17T21:37:04.955Z,95.09
2022-12-17T21:42:29.015Z,93.86
2022-12-17T21:47:29.849Z,95.12
2022-12-17T21:52:30.647Z,94.35
2022-12-17T21:57:31.358Z,93.57
2022-12-17T22:02:32.356Z,91.13
2022-12-17T22:07:36.180Z,90.35
2022-12-17T22:13:01.662Z,91.27
2022-12-17T22:18:02.610Z,91.79
2022-12-17T22:23:04.591Z,92.58
2022-12-17T22:28:05.816Z,91.99
2022-12-17T22:33:26.312Z,92.54
2022-12-17T22:44:28.525Z,92.55
2022-12-17T22:49:41.124Z,100.00
2022-12-17T22:54:44.820Z,90.24
2022-12-17T22:59:46.339Z,88.46
2022-12-17T23:04:47.319Z,89.01
2022-12-17T23:09:48.273Z,90.95
2022-12-17T23:14:49.038Z,92.54
2022-12-17T23:19:49.789Z,93.73
2022-12-17T23:24:50.729Z,94.09
2022-12-17T23:29:51.480Z,94.64
2022-12-17T23:34:52.303Z,95.04
2022-12-17T23:39:53.142Z,94.82
2022-12-17T23:44:53.878Z,94.94
2022-12-17T23:49:54.605Z,93.55
2022-12-17T23:57:12.942Z,92.76
